sensor_id;sensor_type;location;lat;lon;timestamp;pressure;altitude;pressure_sealevel;temperature;humidity
74659;BME280;63186;51.204;6.536;2022-12-29T00:01:45;99894.19;;;10.52;86.54
74659;BME280;63186;51.204;6.536;2022-12-29T00:04:14;99897.13;;;10.47;87.19
74659;BME280;63186;51.204;6.536;2022-12-29T00:06:40;99875.78;;;10.44;87.14
74659;BME280;63186;51.204;6.536;2022-12-29T00:09:05;99889.69;;;10.47;87.04
74659;BME280;63186;51.204;6.536;2022-12-29T00:11:30;99884.03;;;10.44;87.37
74659;BME280;63186;51.204;6.536;2022-12-29T00:13:55;99883.88;;;10.40;87.44
74659;BME280;63186;51.204;6.536;2022-12-29T00:16:44;99886.47;;;10.37;88.07
74659;BME280;63186;51.204;6.536;2022-12-29T00:19:11;99884.56;;;10.37;87.78
74659;BME280;63186;51.204;6.536;2022-12-29T00:21:56;99870.81;;;10.37;87.91
74659;BME280;63186;51.204;6.536;2022-12-29T00:24:41;99872.41;;;10.38;87.98
74659;BME280;63186;51.204;6.536;2022-12-29T00:27:25;99869.66;;;10.38;88.12
74659;BME280;63186;51.204;6.536;2022-12-29T00:30:11;99859.47;;;10.39;87.80
74659;BME280;63186;51.204;6.536;2022-12-29T00:32:55;99857.19;;;10.41;87.65
74659;BME280;63186;51.204;6.536;2022-12-29T00:35:43;99860.91;;;10.36;88.04
74659;BME280;63186;51.204;6.536;2022-12-29T00:38:10;99855.22;;;10.41;87.85
74659;BME280;63186;51.204;6.536;2022-12-29T00:40:55;99852.75;;;10.48;87.34
74659;BME280;63186;51.204;6.536;2022-12-29T00:43:39;99849.69;;;10.50;87.27
74659;BME280;63186;51.204;6.536;2022-12-29T00:46:22;99847.34;;;10.60;86.34
74659;BME280;63186;51.204;6.536;2022-12-29T00:48:48;99843.72;;;10.69;86.09
74659;BME280;63186;51.204;6.536;2022-12-29T00:51:32;99846.81;;;10.67;86.20
74659;BME280;63186;51.204;6.536;2022-12-29T00:53:57;99831.81;;;10.65;86.01
74659;BME280;63186;51.204;6.536;2022-12-29T00:56:22;99835.47;;;10.69;85.35
74659;BME280;63186;51.204;6.536;2022-12-29T00:58:48;99831.06;;;10.76;84.94
74659;BME280;63186;51.204;6.536;2022-12-29T01:01:13;99829.75;;;10.82;84.14
74659;BME280;63186;51.204;6.536;2022-12-29T01:03:38;99825.16;;;10.86;84.60
74659;BME280;63186;51.204;6.536;2022-12-29T01:06:10;99837.47;;;10.89;83.91
74659;BME280;63186;51.204;6.536;2022-12-29T01:08:36;99837.47;;;10.89;83.98
74659;BME280;63186;51.204;6.536;2022-12-29T01:11:03;99825.16;;;10.86;84.47
74659;BME280;63186;51.204;6.536;2022-12-29T01:13:28;99835.38;;;10.86;84.25
74659;BME280;63186;51.204;6.536;2022-12-29T01:15:54;99832.06;;;10.93;83.63
74659;BME280;63186;51.204;6.536;2022-12-29T01:18:20;99829.78;;;10.95;83.62
74659;BME280;63186;51.204;6.536;2022-12-29T01:20:46;99837.94;;;10.91;83.72
74659;BME280;63186;51.204;6.536;2022-12-29T01:23:11;99832.88;;;10.93;82.94
74659;BME280;63186;51.204;6.536;2022-12-29T01:25:36;99816.16;;;10.98;82.71
74659;BME280;63186;51.204;6.536;2022-12-29T01:28:01;99834.97;;;10.96;82.78
74659;BME280;63186;51.204;6.536;2022-12-29T01:30:27;99837.59;;;10.93;83.01
74659;BME280;63186;51.204;6.536;2022-12-29T01:32:52;99828.88;;;10.91;82.74
74659;BME280;63186;51.204;6.536;2022-12-29T01:35:17;99821.22;;;10.96;82.19
74659;BME280;63186;51.204;6.536;2022-12-29T01:37:43;99813.16;;;10.91;82.79
74659;BME280;63186;51.204;6.536;2022-12-29T01:40:08;99817.69;;;10.87;82.76
74659;BME280;63186;51.204;6.536;2022-12-29T01:42:34;99817.25;;;10.85;82.74
74659;BME280;63186;51.204;6.536;2022-12-29T01:45:08;99806.41;;;10.80;82.48
74659;BME280;63186;51.204;6.536;2022-12-29T01:47:46;99800.78;;;10.76;82.28
74659;BME280;63186;51.204;6.536;2022-12-29T01:50:29;99789.63;;;10.73;82.83
74659;BME280;63186;51.204;6.536;2022-12-29T01:53:04;99796.94;;;10.69;82.11
74659;BME280;63186;51.204;6.536;2022-12-29T01:55:34;99800.84;;;10.68;82.66
74659;BME280;63186;51.204;6.536;2022-12-29T01:58:03;99792.50;;;10.55;83.07
74659;BME280;63186;51.204;6.536;2022-12-29T02:00:30;99796.28;;;10.51;83.35
74659;BME280;63186;51.204;6.536;2022-12-29T02:02:55;99801.63;;;10.47;83.35
74659;BME280;63186;51.204;6.536;2022-12-29T02:05:33;99800.28;;;10.53;81.77
74659;BME280;63186;51.204;6.536;2022-12-29T02:08:00;99807.69;;;10.62;81.99
74659;BME280;63186;51.204;6.536;2022-12-29T02:10:28;99802.78;;;10.67;81.35
74659;BME280;63186;51.204;6.536;2022-12-29T02:12:55;99807.16;;;10.68;81.52
74659;BME280;63186;51.204;6.536;2022-12-29T02:21:48;99786.81;;;10.60;80.96
74659;BME280;63186;51.204;6.536;2022-12-29T02:24:43;99801.78;;;10.72;80.32
74659;BME280;63186;51.204;6.536;2022-12-29T02:30:03;99787.00;;;10.55;81.13
74659;BME280;63186;51.204;6.536;2022-12-29T02:32:37;99780.69;;;10.55;80.79
74659;BME280;63186;51.204;6.536;2022-12-29T02:35:32;99789.44;;;10.57;80.62
74659;BME280;63186;51.204;6.536;2022-12-29T02:40:41;99770.09;;;10.66;80.56
74659;BME280;63186;51.204;6.536;2022-12-29T02:43:39;99759.00;;;10.74;79.44
74659;BME280;63186;51.204;6.536;2022-12-29T02:51:26;99764.22;;;10.76;80.30
74659;BME280;63186;51.204;6.536;2022-12-29T02:53:55;99763.72;;;10.74;80.38
74659;BME280;63186;51.204;6.536;2022-12-29T02:56:40;99749.94;;;10.74;80.62
74659;BME280;63186;51.204;6.536;2022-12-29T02:59:06;99741.88;;;10.69;80.45
74659;BME280;63186;51.204;6.536;2022-12-29T03:04:28;99752.03;;;10.77;80.48
74659;BME280;63186;51.204;6.536;2022-12-29T03:07:07;99750.09;;;10.77;80.30
74659;BME280;63186;51.204;6.536;2022-12-29T03:09:52;99736.13;;;10.82;80.28
74659;BME280;63186;51.204;6.536;2022-12-29T03:15:15;99738.75;;;10.79;80.88
74659;BME280;63186;51.204;6.536;2022-12-29T03:18:07;99742.84;;;10.73;81.80
74659;BME280;63186;51.204;6.536;2022-12-29T03:20:41;99735.31;;;10.61;82.58
74659;BME280;63186;51.204;6.536;2022-12-29T03:23:10;99743.78;;;10.56;83.41
74659;BME280;63186;51.204;6.536;2022-12-29T03:25:40;99737.00;;;10.53;83.46
74659;BME280;63186;51.204;6.536;2022-12-29T03:28:10;99732.66;;;10.52;83.22
74659;BME280;63186;51.204;6.536;2022-12-29T03:30:39;99724.03;;;10.54;83.37
74659;BME280;63186;51.204;6.536;2022-12-29T03:33:08;99722.38;;;10.62;82.92
74659;BME280;63186;51.204;6.536;2022-12-29T03:35:37;99707.59;;;10.66;82.85
74659;BME280;63186;51.204;6.536;2022-12-29T03:38:12;99712.91;;;10.71;82.25
74659;BME280;63186;51.204;6.536;2022-12-29T03:40:42;99724.38;;;10.73;82.42
74659;BME280;63186;51.204;6.536;2022-12-29T03:43:09;99723.22;;;10.74;82.21
74659;BME280;63186;51.204;6.536;2022-12-29T03:45:35;99705.44;;;10.72;82.40
74659;BME280;63186;51.204;6.536;2022-12-29T03:48:00;99680.00;;;10.75;82.19
74659;BME280;63186;51.204;6.536;2022-12-29T03:50:25;99704.91;;;10.78;82.21
74659;BME280;63186;51.204;6.536;2022-12-29T03:52:51;99688.84;;;10.80;82.04
74659;BME280;63186;51.204;6.536;2022-12-29T03:55:16;99684.75;;;10.86;81.69
74659;BME280;63186;51.204;6.536;2022-12-29T03:57:41;99682.53;;;10.80;82.01
74659;BME280;63186;51.204;6.536;2022-12-29T04:00:07;99682.44;;;10.76;81.97
74659;BME280;63186;51.204;6.536;2022-12-29T04:02:33;99683.09;;;10.73;82.23
74659;BME280;63186;51.204;6.536;2022-12-29T04:04:58;99685.28;;;10.80;82.26
74659;BME280;63186;51.204;6.536;2022-12-29T04:07:23;99695.41;;;10.88;81.39
74659;BME280;63186;51.204;6.536;2022-12-29T04:09:48;99700.59;;;10.90;81.48
74659;BME280;63186;51.204;6.536;2022-12-29T04:12:14;99708.31;;;10.96;80.61
74659;BME280;63186;51.204;6.536;2022-12-29T04:14:39;99697.75;;;10.98;80.97
74659;BME280;63186;51.204;6.536;2022-12-29T04:17:05;99699.91;;;10.93;81.06
74659;BME280;63186;51.204;6.536;2022-12-29T04:19:30;99697.59;;;10.95;79.78
74659;BME280;63186;51.204;6.536;2022-12-29T04:21:55;99708.75;;;10.98;80.39
74659;BME280;63186;51.204;6.536;2022-12-29T04:24:20;99711.88;;;10.97;80.24
74659;BME280;63186;51.204;6.536;2022-12-29T04:26:46;99707.03;;;10.94;80.24
74659;BME280;63186;51.204;6.536;2022-12-29T04:29:11;99705.97;;;10.86;80.16
74659;BME280;63186;51.204;6.536;2022-12-29T04:31:36;99694.00;;;10.82;80.26
74659;BME280;63186;51.204;6.536;2022-12-29T04:34:01;99707.22;;;10.88;80.32
74659;BME280;63186;51.204;6.536;2022-12-29T04:36:27;99708.72;;;10.86;80.10
74659;BME280;63186;51.204;6.536;2022-12-29T04:38:52;99702.16;;;10.78;80.29
74659;BME280;63186;51.204;6.536;2022-12-29T04:41:17;99710.97;;;10.72;80.55
74659;BME280;63186;51.204;6.536;2022-12-29T04:43:43;99716.00;;;10.70;80.54
74659;BME280;63186;51.204;6.536;2022-12-29T04:46:08;99715.22;;;10.81;79.90
74659;BME280;63186;51.204;6.536;2022-12-29T04:48:33;99711.13;;;10.87;79.37
74659;BME280;63186;51.204;6.536;2022-12-29T04:50:58;99708.84;;;10.90;78.82
74659;BME280;63186;51.204;6.536;2022-12-29T04:53:24;99718.38;;;10.92;79.23
74659;BME280;63186;51.204;6.536;2022-12-29T04:55:50;99711.66;;;10.81;79.59
74659;BME280;63186;51.204;6.536;2022-12-29T04:58:16;99711.00;;;10.84;78.94
74659;BME280;63186;51.204;6.536;2022-12-29T05:00:41;99711.81;;;10.84;79.29
74659;BME280;63186;51.204;6.536;2022-12-29T05:03:08;99717.78;;;10.86;79.31
74659;BME280;63186;51.204;6.536;2022-12-29T05:05:33;99710.22;;;10.83;79.16
74659;BME280;63186;51.204;6.536;2022-12-29T05:07:58;99710.41;;;10.78;79.68
74659;BME280;63186;51.204;6.536;2022-12-29T05:10:23;99721.41;;;10.78;79.68
74659;BME280;63186;51.204;6.536;2022-12-29T05:12:49;99726.59;;;10.80;79.26
74659;BME280;63186;51.204;6.536;2022-12-29T05:15:14;99707.31;;;10.80;79.01
74659;BME280;63186;51.204;6.536;2022-12-29T05:17:39;99732.00;;;10.88;79.20
74659;BME280;63186;51.204;6.536;2022-12-29T05:20:05;99728.00;;;10.86;79.54
74659;BME280;63186;51.204;6.536;2022-12-29T05:22:31;99717.91;;;10.90;78.64
74659;BME280;63186;51.204;6.536;2022-12-29T05:24:56;99727.66;;;10.87;79.29
74659;BME280;63186;51.204;6.536;2022-12-29T05:27:21;99725.31;;;10.77;79.65
74659;BME280;63186;51.204;6.536;2022-12-29T05:29:46;99724.28;;;10.82;78.98
74659;BME280;63186;51.204;6.536;2022-12-29T05:32:14;99716.31;;;10.89;78.28
74659;BME280;63186;51.204;6.536;2022-12-29T05:34:40;99722.63;;;10.90;78.69
74659;BME280;63186;51.204;6.536;2022-12-29T05:37:05;99724.22;;;10.91;78.91
74659;BME280;63186;51.204;6.536;2022-12-29T05:39:30;99722.47;;;10.86;78.73
74659;BME280;63186;51.204;6.536;2022-12-29T05:41:56;99732.16;;;10.92;78.46
74659;BME280;63186;51.204;6.536;2022-12-29T05:44:21;99737.84;;;10.87;78.88
74659;BME280;63186;51.204;6.536;2022-12-29T05:46:46;99750.81;;;10.86;78.68
74659;BME280;63186;51.204;6.536;2022-12-29T05:49:11;99739.19;;;10.81;78.37
74659;BME280;63186;51.204;6.536;2022-12-29T05:51:37;99733.59;;;10.77;79.30
74659;BME280;63186;51.204;6.536;2022-12-29T05:54:02;99748.00;;;10.74;78.81
74659;BME280;63186;51.204;6.536;2022-12-29T05:56:27;99747.09;;;10.70;78.77
74659;BME280;63186;51.204;6.536;2022-12-29T05:58:53;99761.31;;;10.72;79.06
74659;BME280;63186;51.204;6.536;2022-12-29T06:01:18;99764.59;;;10.66;79.20
74659;BME280;63186;51.204;6.536;2022-12-29T06:03:43;99757.75;;;10.51;79.50
74659;BME280;63186;51.204;6.536;2022-12-29T06:06:08;99754.56;;;10.40;79.38
74659;BME280;63186;51.204;6.536;2022-12-29T06:08:34;99758.53;;;10.30;79.95
74659;BME280;63186;51.204;6.536;2022-12-29T06:10:59;99759.88;;;10.24;80.06
74659;BME280;63186;51.204;6.536;2022-12-29T06:13:24;99754.19;;;10.21;80.14
74659;BME280;63186;51.204;6.536;2022-12-29T06:15:50;99755.97;;;10.17;80.09
74659;BME280;63186;51.204;6.536;2022-12-29T06:18:16;99758.44;;;10.10;80.26
74659;BME280;63186;51.204;6.536;2022-12-29T06:20:41;99768.66;;;10.09;80.00
74659;BME280;63186;51.204;6.536;2022-12-29T06:23:06;99785.47;;;10.07;80.15
74659;BME280;63186;51.204;6.536;2022-12-29T06:25:32;99790.34;;;10.11;80.00
74659;BME280;63186;51.204;6.536;2022-12-29T06:27:58;99797.56;;;10.15;79.68
74659;BME280;63186;51.204;6.536;2022-12-29T06:30:23;99796.91;;;10.27;79.01
74659;BME280;63186;51.204;6.536;2022-12-29T06:32:49;99793.28;;;10.35;77.83
74659;BME280;63186;51.204;6.536;2022-12-29T06:35:14;99798.06;;;10.47;78.04
74659;BME280;63186;51.204;6.536;2022-12-29T06:37:39;99804.56;;;10.42;78.21
74659;BME280;63186;51.204;6.536;2022-12-29T06:40:05;99811.56;;;10.40;78.08
74659;BME280;63186;51.204;6.536;2022-12-29T06:42:30;99810.22;;;10.46;78.12
74659;BME280;63186;51.204;6.536;2022-12-29T06:44:56;99814.91;;;10.45;78.34
74659;BME280;63186;51.204;6.536;2022-12-29T06:47:24;99809.41;;;10.45;77.67
74659;BME280;63186;51.204;6.536;2022-12-29T06:49:49;99804.91;;;10.41;77.74
74659;BME280;63186;51.204;6.536;2022-12-29T06:52:15;99808.19;;;10.34;77.65
74659;BME280;63186;51.204;6.536;2022-12-29T06:54:40;99815.97;;;10.32;78.02
74659;BME280;63186;51.204;6.536;2022-12-29T06:57:05;99832.81;;;10.30;78.29
74659;BME280;63186;51.204;6.536;2022-12-29T06:59:31;99832.66;;;10.27;78.08
74659;BME280;63186;51.204;6.536;2022-12-29T07:01:56;99827.31;;;10.22;78.21
74659;BME280;63186;51.204;6.536;2022-12-29T07:04:21;99829.94;;;10.10;78.68
74659;BME280;63186;51.204;6.536;2022-12-29T07:06:46;99829.81;;;10.06;78.67
74659;BME280;63186;51.204;6.536;2022-12-29T07:09:12;99826.09;;;10.02;77.33
74659;BME280;63186;51.204;6.536;2022-12-29T07:11:37;99838.06;;;9.97;77.97
74659;BME280;63186;51.204;6.536;2022-12-29T07:14:03;99832.44;;;9.94;77.67
74659;BME280;63186;51.204;6.536;2022-12-29T07:16:28;99822.75;;;9.88;77.77
74659;BME280;63186;51.204;6.536;2022-12-29T07:18:56;99840.41;;;9.87;78.20
74659;BME280;63186;51.204;6.536;2022-12-29T07:21:21;99827.00;;;9.85;78.49
74659;BME280;63186;51.204;6.536;2022-12-29T07:23:47;99835.06;;;9.82;77.50
74659;BME280;63186;51.204;6.536;2022-12-29T07:26:13;99847.47;;;9.96;77.58
74659;BME280;63186;51.204;6.536;2022-12-29T07:28:39;99838.41;;;9.96;77.75
74659;BME280;63186;51.204;6.536;2022-12-29T07:31:05;99859.09;;;10.02;76.26
74659;BME280;63186;51.204;6.536;2022-12-29T07:33:31;99855.03;;;10.08;76.73
74659;BME280;63186;51.204;6.536;2022-12-29T07:35:58;99856.81;;;10.13;76.34
74659;BME280;63186;51.204;6.536;2022-12-29T07:38:23;99862.78;;;10.15;76.52
74659;BME280;63186;51.204;6.536;2022-12-29T07:40:48;99857.13;;;10.11;76.70
74659;BME280;63186;51.204;6.536;2022-12-29T07:43:14;99875.59;;;10.11;76.30
74659;BME280;63186;51.204;6.536;2022-12-29T07:45:39;99873.81;;;10.06;76.73
74659;BME280;63186;51.204;6.536;2022-12-29T07:48:05;99888.38;;;10.06;76.92
74659;BME280;63186;51.204;6.536;2022-12-29T07:50:33;99873.81;;;10.06;76.49
74659;BME280;63186;51.204;6.536;2022-12-29T07:52:58;99887.56;;;10.06;76.13
74659;BME280;63186;51.204;6.536;2022-12-29T07:55:24;99884.31;;;10.04;76.85
74659;BME280;63186;51.204;6.536;2022-12-29T07:57:49;99886.75;;;9.97;77.18
74659;BME280;63186;51.204;6.536;2022-12-29T08:00:15;99875.81;;;9.88;77.38
74659;BME280;63186;51.204;6.536;2022-12-29T08:02:40;99874.53;;;9.86;77.87
74659;BME280;63186;51.204;6.536;2022-12-29T08:05:05;99876.63;;;9.80;77.94
74659;BME280;63186;51.204;6.536;2022-12-29T08:07:34;99883.28;;;9.79;77.46
74659;BME280;63186;51.204;6.536;2022-12-29T08:09:59;99885.22;;;9.78;77.56
74659;BME280;63186;51.204;6.536;2022-12-29T08:12:24;99881.16;;;9.76;77.59
74659;BME280;63186;51.204;6.536;2022-12-29T08:14:49;99894.75;;;9.81;77.12
74659;BME280;63186;51.204;6.536;2022-12-29T08:17:15;99890.22;;;9.85;76.80
74659;BME280;63186;51.204;6.536;2022-12-29T08:19:40;99907.31;;;9.91;77.27
74659;BME280;63186;51.204;6.536;2022-12-29T08:22:07;99901.31;;;9.97;76.83
74659;BME280;63186;51.204;6.536;2022-12-29T08:24:32;99894.53;;;9.95;76.93
74659;BME280;63186;51.204;6.536;2022-12-29T08:26:58;99919.28;;;9.95;76.74
74659;BME280;63186;51.204;6.536;2022-12-29T08:29:23;99922.06;;;9.86;77.66
74659;BME280;63186;51.204;6.536;2022-12-29T08:31:48;99929.50;;;9.77;78.46
74659;BME280;63186;51.204;6.536;2022-12-29T08:34:13;99937.75;;;9.68;78.58
74659;BME280;63186;51.204;6.536;2022-12-29T08:36:39;99930.81;;;9.62;79.46
74659;BME280;63186;51.204;6.536;2022-12-29T08:39:04;99931.16;;;9.61;79.22
74659;BME280;63186;51.204;6.536;2022-12-29T08:41:30;99931.78;;;9.75;78.63
74659;BME280;63186;51.204;6.536;2022-12-29T08:43:55;99936.44;;;9.83;78.65
74659;BME280;63186;51.204;6.536;2022-12-29T08:46:20;99932.88;;;9.83;78.95
74659;BME280;63186;51.204;6.536;2022-12-29T08:48:46;99936.00;;;9.72;79.27
74659;BME280;63186;51.204;6.536;2022-12-29T08:51:11;99928.03;;;9.71;78.46
74659;BME280;63186;51.204;6.536;2022-12-29T08:53:36;99927.88;;;9.76;78.03
74659;BME280;63186;51.204;6.536;2022-12-29T08:56:02;99939.00;;;10.05;77.33
74659;BME280;63186;51.204;6.536;2022-12-29T08:58:27;99937.66;;;10.38;75.99
74659;BME280;63186;51.204;6.536;2022-12-29T09:00:56;99934.44;;;10.65;73.91
74659;BME280;63186;51.204;6.536;2022-12-29T09:03:23;99952.84;;;10.44;75.03
74659;BME280;63186;51.204;6.536;2022-12-29T09:05:49;99948.31;;;10.22;75.92
74659;BME280;63186;51.204;6.536;2022-12-29T09:08:15;99942.69;;;10.10;76.49
74659;BME280;63186;51.204;6.536;2022-12-29T09:10:41;99945.78;;;10.08;76.63
74659;BME280;63186;51.204;6.536;2022-12-29T09:13:06;99953.53;;;10.23;76.16
74659;BME280;63186;51.204;6.536;2022-12-29T09:15:31;99974.41;;;10.24;75.46
74659;BME280;63186;51.204;6.536;2022-12-29T09:17:57;99950.28;;;10.30;74.98
74659;BME280;63186;51.204;6.536;2022-12-29T09:20:22;99957.78;;;11.18;71.62
74659;BME280;63186;51.204;6.536;2022-12-29T09:22:48;99974.47;;;10.92;72.84
74659;BME280;63186;51.204;6.536;2022-12-29T09:25:14;99968.34;;;10.86;71.63
74659;BME280;63186;51.204;6.536;2022-12-29T09:27:40;99978.47;;;10.65;73.23
74659;BME280;63186;51.204;6.536;2022-12-29T09:30:08;99970.78;;;10.50;72.97
74659;BME280;63186;51.204;6.536;2022-12-29T09:32:35;99965.78;;;10.43;73.18
74659;BME280;63186;51.204;6.536;2022-12-29T09:35:00;99947.50;;;10.39;73.05
74659;BME280;63186;51.204;6.536;2022-12-29T09:37:26;99958.66;;;10.42;73.15
74659;BME280;63186;51.204;6.536;2022-12-29T09:39:51;99968.53;;;10.43;72.70
74659;BME280;63186;51.204;6.536;2022-12-29T09:42:24;99963.84;;;10.44;70.97
74659;BME280;63186;51.204;6.536;2022-12-29T09:47:36;99963.50;;;10.45;71.10
74659;BME280;63186;51.204;6.536;2022-12-29T09:52:42;99978.84;;;10.55;70.56
74659;BME280;63186;51.204;6.536;2022-12-29T09:55:14;99970.56;;;10.55;69.10
74659;BME280;63186;51.204;6.536;2022-12-29T09:57:45;99974.94;;;10.94;68.47
74659;BME280;63186;51.204;6.536;2022-12-29T10:00:20;99979.53;;;11.82;65.79
74659;BME280;63186;51.204;6.536;2022-12-29T10:02:51;99962.91;;;12.36;63.03
74659;BME280;63186;51.204;6.536;2022-12-29T10:05:33;99979.69;;;11.98;64.20
74659;BME280;63186;51.204;6.536;2022-12-29T10:10:53;99969.00;;;11.34;65.48
74659;BME280;63186;51.204;6.536;2022-12-29T10:13:43;99979.19;;;11.42;65.02
74659;BME280;63186;51.204;6.536;2022-12-29T10:16:25;99980.19;;;11.37;64.87
74659;BME280;63186;51.204;6.536;2022-12-29T10:24:22;99972.91;;;11.95;63.22
74659;BME280;63186;51.204;6.536;2022-12-29T10:26:49;99988.22;;;12.05;63.00
74659;BME280;63186;51.204;6.536;2022-12-29T10:29:19;99983.94;;;12.29;62.36
74659;BME280;63186;51.204;6.536;2022-12-29T10:32:06;99970.03;;;12.37;62.40
74659;BME280;63186;51.204;6.536;2022-12-29T10:34:43;100000.28;;;12.01;63.27
74659;BME280;63186;51.204;6.536;2022-12-29T10:37:25;99974.97;;;11.99;63.68
74659;BME280;63186;51.204;6.536;2022-12-29T10:39:54;99995.53;;;11.89;64.68
74659;BME280;63186;51.204;6.536;2022-12-29T10:42:28;99997.50;;;11.80;64.68
74659;BME280;63186;51.204;6.536;2022-12-29T10:44:58;99989.75;;;11.61;64.86
74659;BME280;63186;51.204;6.536;2022-12-29T10:47:27;99999.31;;;11.34;65.99
74659;BME280;63186;51.204;6.536;2022-12-29T10:49:55;99992.72;;;11.26;66.19
74659;BME280;63186;51.204;6.536;2022-12-29T10:52:24;99976.91;;;11.14;65.97
74659;BME280;63186;51.204;6.536;2022-12-29T10:55:17;100001.41;;;11.07;65.62
74659;BME280;63186;51.204;6.536;2022-12-29T10:57:45;100016.69;;;11.05;66.48
74659;BME280;63186;51.204;6.536;2022-12-29T11:05:41;100020.00;;;10.90;66.93
74659;BME280;63186;51.204;6.536;2022-12-29T11:08:14;100007.56;;;10.83;66.12
74659;BME280;63186;51.204;6.536;2022-12-29T11:10:43;100026.66;;;10.80;67.25
74659;BME280;63186;51.204;6.536;2022-12-29T11:13:16;100022.47;;;10.74;67.57
74659;BME280;63186;51.204;6.536;2022-12-29T11:15:49;100043.69;;;10.73;66.85
74659;BME280;63186;51.204;6.536;2022-12-29T11:18:23;100062.34;;;10.68;67.80
74659;BME280;63186;51.204;6.536;2022-12-29T11:21:00;100055.88;;;10.64;68.00
74659;BME280;63186;51.204;6.536;2022-12-29T11:23:36;100064.94;;;10.64;67.21
74659;BME280;63186;51.204;6.536;2022-12-29T11:26:13;100067.03;;;10.67;67.30
74659;BME280;63186;51.204;6.536;2022-12-29T11:28:41;100059.44;;;10.64;67.23
74659;BME280;63186;51.204;6.536;2022-12-29T11:31:08;100053.94;;;10.64;68.20
74659;BME280;63186;51.204;6.536;2022-12-29T11:33:35;100067.06;;;10.58;67.91
74659;BME280;63186;51.204;6.536;2022-12-29T11:36:11;100054.44;;;10.49;67.63
74659;BME280;63186;51.204;6.536;2022-12-29T11:38:41;100038.59;;;10.46;67.82
74659;BME280;63186;51.204;6.536;2022-12-29T11:41:11;100060.28;;;10.47;67.85
74659;BME280;63186;51.204;6.536;2022-12-29T11:43:40;100069.00;;;10.49;67.50
74659;BME280;63186;51.204;6.536;2022-12-29T11:46:14;100073.22;;;10.55;67.88
74659;BME280;63186;51.204;6.536;2022-12-29T11:48:42;100073.84;;;10.61;68.23
74659;BME280;63186;51.204;6.536;2022-12-29T11:51:09;100062.19;;;10.55;67.87
74659;BME280;63186;51.204;6.536;2022-12-29T11:53:43;100071.59;;;10.54;67.54
74659;BME280;63186;51.204;6.536;2022-12-29T11:56:14;100081.81;;;10.54;67.77
74659;BME280;63186;51.204;6.536;2022-12-29T11:58:40;100083.75;;;10.53;68.27
74659;BME280;63186;51.204;6.536;2022-12-29T12:01:33;100080.53;;;10.51;68.26
74659;BME280;63186;51.204;6.536;2022-12-29T12:04:03;100074.53;;;10.49;68.14
74659;BME280;63186;51.204;6.536;2022-12-29T12:06:32;100078.09;;;10.50;68.21
74659;BME280;63186;51.204;6.536;2022-12-29T12:09:04;100082.63;;;10.46;68.37
74659;BME280;63186;51.204;6.536;2022-12-29T12:11:34;100086.53;;;10.45;68.68
74659;BME280;63186;51.204;6.536;2022-12-29T12:17:03;100098.66;;;10.44;67.92
74659;BME280;63186;51.204;6.536;2022-12-29T12:22:10;100084.91;;;10.35;68.18
74659;BME280;63186;51.204;6.536;2022-12-29T12:27:33;100099.47;;;10.27;69.24
74659;BME280;63186;51.204;6.536;2022-12-29T12:30:15;100101.56;;;10.21;68.69
74659;BME280;63186;51.204;6.536;2022-12-29T12:33:05;100113.56;;;10.25;68.75
74659;BME280;63186;51.204;6.536;2022-12-29T12:41:33;100123.09;;;10.28;69.15
74659;BME280;63186;51.204;6.536;2022-12-29T12:44:12;100092.84;;;10.28;68.26
74659;BME280;63186;51.204;6.536;2022-12-29T12:49:45;100110.47;;;10.18;69.40
74659;BME280;63186;51.204;6.536;2022-12-29T13:03:50;100133.59;;;10.00;70.73
74659;BME280;63186;51.204;6.536;2022-12-29T13:06:25;100111.13;;;9.98;71.21
74659;BME280;63186;51.204;6.536;2022-12-29T13:12:00;100131.00;;;9.95;71.52
74659;BME280;63186;51.204;6.536;2022-12-29T13:17:18;100126.63;;;10.02;70.40
74659;BME280;63186;51.204;6.536;2022-12-29T13:19:59;100135.38;;;10.13;71.42
74659;BME280;63186;51.204;6.536;2022-12-29T13:28:25;100140.69;;;10.10;71.00
74659;BME280;63186;51.204;6.536;2022-12-29T13:31:00;100133.91;;;10.16;70.56
74659;BME280;63186;51.204;6.536;2022-12-29T13:36:17;100147.03;;;10.19;69.06
74659;BME280;63186;51.204;6.536;2022-12-29T13:39:13;100142.16;;;10.16;69.70
74659;BME280;63186;51.204;6.536;2022-12-29T13:41:44;100142.03;;;10.12;70.16
74659;BME280;63186;51.204;6.536;2022-12-29T13:44:18;100158.84;;;10.11;69.79
74659;BME280;63186;51.204;6.536;2022-12-29T13:46:46;100145.72;;;10.07;69.53
74659;BME280;63186;51.204;6.536;2022-12-29T13:49:17;100149.75;;;10.10;69.74
74659;BME280;63186;51.204;6.536;2022-12-29T13:51:48;100157.72;;;10.12;69.65
74659;BME280;63186;51.204;6.536;2022-12-29T13:54:29;100149.13;;;10.04;69.02
74659;BME280;63186;51.204;6.536;2022-12-29T13:59:36;100152.03;;;10.08;68.13
74659;BME280;63186;51.204;6.536;2022-12-29T14:04:59;100167.25;;;10.05;69.11
74659;BME280;63186;51.204;6.536;2022-12-29T14:07:25;100163.50;;;10.01;69.70
74659;BME280;63186;51.204;6.536;2022-12-29T14:09:55;100168.03;;;9.97;69.70
74659;BME280;63186;51.204;6.536;2022-12-29T14:12:38;100166.41;;;9.96;69.82
74659;BME280;63186;51.204;6.536;2022-12-29T14:17:35;100182.91;;;9.96;70.20
74659;BME280;63186;51.204;6.536;2022-12-29T14:20:01;100177.75;;;9.95;70.50
74659;BME280;63186;51.204;6.536;2022-12-29T14:22:28;100175.63;;;9.92;70.24
74659;BME280;63186;51.204;6.536;2022-12-29T14:24:54;100175.94;;;9.90;70.32
74659;BME280;63186;51.204;6.536;2022-12-29T14:29:47;100184.03;;;9.87;70.15
74659;BME280;63186;51.204;6.536;2022-12-29T14:37:31;100178.19;;;9.79;69.65
74659;BME280;63186;51.204;6.536;2022-12-29T14:40:04;100190.00;;;9.80;69.89
74659;BME280;63186;51.204;6.536;2022-12-29T14:42:32;100201.00;;;9.80;69.97
74659;BME280;63186;51.204;6.536;2022-12-29T14:45:30;100192.75;;;9.80;69.47
74659;BME280;63186;51.204;6.536;2022-12-29T14:47:58;100202.94;;;9.79;70.16
74659;BME280;63186;51.204;6.536;2022-12-29T14:50:33;100202.13;;;9.79;70.42
74659;BME280;63186;51.204;6.536;2022-12-29T14:53:04;100205.34;;;9.72;70.78